sensor_id;sensor_type;location;lat;lon;timestamp;pressure;altitude;pressure_sealevel;temperature;humidity
10806;BME280;5455;53.224;6.000;2024-03-08T00:00:12;102151.78;;;2.00;100.00
10806;BME280;5455;53.224;6.000;2024-03-08T00:02:45;102147.13;;;1.95;100.00
10806;BME280;5455;53.224;6.000;2024-03-08T00:05:14;102145.00;;;1.97;100.00
10806;BME280;5455;53.224;6.000;2024-03-08T00:07:42;102143.34;;;1.96;100.00
10806;BME280;5455;53.224;6.000;2024-03-08T00:10:11;102143.06;;;1.93;100.00
10806;BME280;5455;53.224;6.000;2024-03-08T00:12:42;102131.34;;;1.87;100.00
10806;BME280;5455;53.224;6.000;2024-03-08T00:15:11;102137.88;;;1.81;100.00
10806;BME280;5455;53.224;6.000;2024-03-08T00:17:41;102127.00;;;1.76;100.00
10806;BME280;5455;53.224;6.000;2024-03-08T00:20:09;102129.72;;;1.71;100.00
10806;BME280;5455;53.224;6.000;2024-03-08T00:22:38;102125.34;;;1.70;100.00
10806;BME280;5455;53.224;6.000;2024-03-08T00:25:06;102132.69;;;1.70;100.00
10806;BME280;5455;53.224;6.000;2024-03-08T00:27:37;102126.72;;;1.67;100.00
10806;BME280;5455;53.224;6.000;2024-03-08T00:30:16;102124.78;;;1.63;100.00
10806;BME280;5455;53.224;6.000;2024-03-08T00:32:43;102120.69;;;1.60;100.00
10806;BME280;5455;53.224;6.000;2024-03-08T00:35:10;102120.97;;;1.59;100.00
10806;BME280;5455;53.224;6.000;2024-03-08T00:37:39;102120.97;;;1.59;100.00
10806;BME280;5455;53.224;6.000;2024-03-08T00:40:07;102124.25;;;1.56;100.00
10806;BME280;5455;53.224;6.000;2024-03-08T00:42:36;102111.72;;;1.55;100.00
10806;BME280;5455;53.224;6.000;2024-03-08T00:45:05;102120.13;;;1.53;100.00
10806;BME280;5455;53.224;6.000;2024-03-08T00:47:32;102111.19;;;1.53;100.00
10806;BME280;5455;53.224;6.000;2024-03-08T00:49:59;102107.34;;;1.54;100.00
10806;BME280;5455;53.224;6.000;2024-03-08T00:52:26;102109.25;;;1.53;100.00
10806;BME280;5455;53.224;6.000;2024-03-08T00:54:53;102104.94;;;1.52;100.00
10806;BME280;5455;53.224;6.000;2024-03-08T00:57:21;102104.63;;;1.54;100.00
10806;BME280;5455;53.224;6.000;2024-03-08T00:59:48;102104.63;;;1.54;100.00
10806;BME280;5455;53.224;6.000;2024-03-08T01:02:16;102097.06;;;1.56;100.00
10806;BME280;5455;53.224;6.000;2024-03-08T01:04:45;102097.06;;;1.61;100.00
10806;BME280;5455;53.224;6.000;2024-03-08T01:07:14;102092.69;;;1.60;100.00
10806;BME280;5455;53.224;6.000;2024-03-08T01:09:41;102086.19;;;1.61;100.00
10806;BME280;5455;53.224;6.000;2024-03-08T01:12:08;102079.94;;;1.60;100.00
10806;BME280;5455;53.224;6.000;2024-03-08T01:14:38;102078.03;;;1.61;100.00
10806;BME280;5455;53.224;6.000;2024-03-08T01:17:05;102072.06;;;1.59;100.00
10806;BME280;5455;53.224;6.000;2024-03-08T01:19:32;102067.69;;;1.58;100.00
10806;BME280;5455;53.224;6.000;2024-03-08T01:22:00;102062.25;;;1.58;100.00
10806;BME280;5455;53.224;6.000;2024-03-08T01:24:26;102060.63;;;1.57;100.00
10806;BME280;5455;53.224;6.000;2024-03-08T01:26:54;102065.53;;;1.55;100.00
10806;BME280;5455;53.224;6.000;2024-03-08T01:29:21;102059.53;;;1.53;100.00
10806;BME280;5455;53.224;6.000;2024-03-08T01:31:48;102047.56;;;1.54;100.00
10806;BME280;5455;53.224;6.000;2024-03-08T01:34:15;102053.00;;;1.54;100.00
10806;BME280;5455;53.224;6.000;2024-03-08T01:36:42;102047.56;;;1.54;100.00
10806;BME280;5455;53.224;6.000;2024-03-08T01:39:09;102044.03;;;1.53;100.00
10806;BME280;5455;53.224;6.000;2024-03-08T01:41:36;102041.31;;;1.53;100.00
10806;BME280;5455;53.224;6.000;2024-03-08T01:44:03;102043.25;;;1.53;100.00
10806;BME280;5455;53.224;6.000;2024-03-08T01:46:32;102036.44;;;1.55;100.00
10806;BME280;5455;53.224;6.000;2024-03-08T01:49:00;102027.19;;;1.56;100.00
10806;BME280;5455;53.224;6.000;2024-03-08T01:51:30;102026.41;;;1.56;100.00
10806;BME280;5455;53.224;6.000;2024-03-08T01:54:00;102018.78;;;1.53;100.00
10806;BME280;5455;53.224;6.000;2024-03-08T01:56:28;102023.66;;;1.51;100.00
10806;BME280;5455;53.224;6.000;2024-03-08T01:58:56;102021.75;;;1.46;100.00
10806;BME280;5455;53.224;6.000;2024-03-08T02:01:23;102008.16;;;1.46;100.00
10806;BME280;5455;53.224;6.000;2024-03-08T02:03:50;102019.03;;;1.46;100.00
10806;BME280;5455;53.224;6.000;2024-03-08T02:06:17;102016.56;;;1.45;100.00
10806;BME280;5455;53.224;6.000;2024-03-08T02:08:45;102007.88;;;1.43;100.00
10806;BME280;5455;53.224;6.000;2024-03-08T02:11:13;102013.31;;;1.43;100.00
10806;BME280;5455;53.224;6.000;2024-03-08T02:13:41;102008.13;;;1.41;100.00
10806;BME280;5455;53.224;6.000;2024-03-08T02:16:08;102010.06;;;1.41;100.00
10806;BME280;5455;53.224;6.000;2024-03-08T02:18:36;102006.00;;;1.43;100.00
10806;BME280;5455;53.224;6.000;2024-03-08T02:21:05;102005.16;;;1.43;100.00
10806;BME280;5455;53.224;6.000;2024-03-08T02:23:33;102005.16;;;1.43;100.00
10806;BME280;5455;53.224;6.000;2024-03-08T02:26:00;102005.44;;;1.36;100.00
10806;BME280;5455;53.224;6.000;2024-03-08T02:28:28;101997.56;;;1.35;100.00
10806;BME280;5455;53.224;6.000;2024-03-08T02:30:56;101993.44;;;1.32;100.00
10806;BME280;5455;53.224;6.000;2024-03-08T02:33:26;101991.31;;;1.29;100.00
10806;BME280;5455;53.224;6.000;2024-03-08T02:35:54;101998.06;;;1.27;100.00
10806;BME280;5455;53.224;6.000;2024-03-08T02:38:23;101983.94;;;1.25;100.00
10806;BME280;5455;53.224;6.000;2024-03-08T02:40:53;101988.84;;;1.23;100.00
10806;BME280;5455;53.224;6.000;2024-03-08T02:43:22;101984.22;;;1.23;100.00
10806;BME280;5455;53.224;6.000;2024-03-08T02:45:50;101986.38;;;1.21;100.00
10806;BME280;5455;53.224;6.000;2024-03-08T02:48:17;101980.66;;;1.18;100.00
10806;BME280;5455;53.224;6.000;2024-03-08T02:50:44;101977.94;;;1.18;100.00
10806;BME280;5455;53.224;6.000;2024-03-08T02:53:13;101980.41;;;1.14;100.00
10806;BME280;5455;53.224;6.000;2024-03-08T02:55:41;101974.97;;;1.14;100.00
10806;BME280;5455;53.224;6.000;2024-03-08T02:58:09;101969.25;;;1.10;100.00
10806;BME280;5455;53.224;6.000;2024-03-08T03:00:39;101960.00;;;1.11;100.00
10806;BME280;5455;53.224;6.000;2024-03-08T03:03:07;101963.25;;;1.08;100.00
10806;BME280;5455;53.224;6.000;2024-03-08T03:05:35;101956.22;;;1.07;100.00
10806;BME280;5455;53.224;6.000;2024-03-08T03:08:02;101959.19;;;1.06;100.00
10806;BME280;5455;53.224;6.000;2024-03-08T03:10:37;101952.94;;;1.05;100.00
10806;BME280;5455;53.224;6.000;2024-03-08T03:13:04;101949.44;;;1.05;100.00
10806;BME280;5455;53.224;6.000;2024-03-08T03:15:32;101951.84;;;1.06;100.00
10806;BME280;5455;53.224;6.000;2024-03-08T03:18:01;101949.69;;;1.03;100.00
10806;BME280;5455;53.224;6.000;2024-03-08T03:20:29;101945.59;;;1.01;100.00
10806;BME280;5455;53.224;6.000;2024-03-08T03:23:08;101943.97;;;1.00;100.00
10806;BME280;5455;53.224;6.000;2024-03-08T03:25:36;101938.25;;;0.96;100.00
10806;BME280;5455;53.224;6.000;2024-03-08T03:28:05;101942.06;;;0.95;100.00
10806;BME280;5455;53.224;6.000;2024-03-08T03:30:35;101938.78;;;0.93;100.00
10806;BME280;5455;53.224;6.000;2024-03-08T03:33:02;101936.34;;;0.92;100.00
10806;BME280;5455;53.224;6.000;2024-03-08T03:35:35;101939.31;;;0.90;100.00
10806;BME280;5455;53.224;6.000;2024-03-08T03:38:04;101933.88;;;0.90;100.00
10806;BME280;5455;53.224;6.000;2024-03-08T03:40:38;101919.78;;;0.83;100.00
10806;BME280;5455;53.224;6.000;2024-03-08T03:43:06;101921.97;;;0.86;100.00
10806;BME280;5455;53.224;6.000;2024-03-08T03:45:34;101917.59;;;0.85;100.00
10806;BME280;5455;53.224;6.000;2024-03-08T03:48:07;101920.84;;;0.87;100.00
10806;BME280;5455;53.224;6.000;2024-03-08T03:50:38;101920.59;;;0.84;100.00
10806;BME280;5455;53.224;6.000;2024-03-08T03:53:06;101922.75;;;0.82;100.00
10806;BME280;5455;53.224;6.000;2024-03-08T03:55:37;101917.59;;;0.80;100.00
10806;BME280;5455;53.224;6.000;2024-03-08T03:58:08;101912.41;;;0.79;100.00
10806;BME280;5455;53.224;6.000;2024-03-08T04:00:38;101910.81;;;0.78;100.00
10806;BME280;5455;53.224;6.000;2024-03-08T04:03:05;101910.00;;;0.77;100.00
10806;BME280;5455;53.224;6.000;2024-03-08T04:05:33;101912.41;;;0.79;100.00
10806;BME280;5455;53.224;6.000;2024-03-08T04:08:00;101903.22;;;0.80;100.00
10806;BME280;5455;53.224;6.000;2024-03-08T04:10:27;101912.13;;;0.75;100.00
10806;BME280;5455;53.224;6.000;2024-03-08T04:12:54;101901.81;;;0.72;100.00
10806;BME280;5455;53.224;6.000;2024-03-08T04:15:21;101901.81;;;0.72;100.00
10806;BME280;5455;53.224;6.000;2024-03-08T04:17:48;101904.53;;;0.72;100.00
10806;BME280;5455;53.224;6.000;2024-03-08T04:20:15;101899.38;;;0.71;100.00
10806;BME280;5455;53.224;6.000;2024-03-08T04:22:44;101900.19;;;0.71;100.00
10806;BME280;5455;53.224;6.000;2024-03-08T04:25:16;101890.72;;;0.74;100.00
10806;BME280;5455;53.224;6.000;2024-03-08T04:27:44;101893.97;;;0.76;100.00
10806;BME280;5455;53.224;6.000;2024-03-08T04:30:12;101895.31;;;0.73;100.00
10806;BME280;5455;53.224;6.000;2024-03-08T04:32:41;101898.03;;;0.73;100.00
10806;BME280;5455;53.224;6.000;2024-03-08T04:35:10;101891.78;;;0.73;100.00
10806;BME280;5455;53.224;6.000;2024-03-08T04:37:39;101888.78;;;0.69;100.00
10806;BME280;5455;53.224;6.000;2024-03-08T04:40:07;101889.06;;;0.68;100.00
10806;BME280;5455;53.224;6.000;2024-03-08T04:42:34;101885.28;;;0.69;100.00
10806;BME280;5455;53.224;6.000;2024-03-08T04:45:04;101882.56;;;0.69;100.00
10806;BME280;5455;53.224;6.000;2024-03-08T04:47:31;101886.63;;;0.71;100.00
10806;BME280;5455;53.224;6.000;2024-03-08T04:49:58;101887.69;;;0.70;100.00
10806;BME280;5455;53.224;6.000;2024-03-08T04:52:26;101883.63;;;0.68;100.00
10806;BME280;5455;53.224;6.000;2024-03-08T04:54:54;101879.84;;;0.69;100.00
10806;BME280;5455;53.224;6.000;2024-03-08T04:57:21;101874.97;;;0.66;100.00
10806;BME280;5455;53.224;6.000;2024-03-08T04:59:48;101876.31;;;0.63;100.00
10806;BME280;5455;53.224;6.000;2024-03-08T05:02:15;101873.31;;;0.60;100.00
10806;BME280;5455;53.224;6.000;2024-03-08T05:04:42;101873.31;;;0.60;100.00
10806;BME280;5455;53.224;6.000;2024-03-08T05:07:09;101864.06;;;0.55;100.00
10806;BME280;5455;53.224;6.000;2024-03-08T05:09:37;101870.84;;;0.53;100.00
10806;BME280;5455;53.224;6.000;2024-03-08T05:12:05;101864.06;;;0.50;100.00
10806;BME280;5455;53.224;6.000;2024-03-08T05:14:32;101865.94;;;0.50;100.00
10806;BME280;5455;53.224;6.000;2024-03-08T05:16:59;101869.19;;;0.47;100.00
10806;BME280;5455;53.224;6.000;2024-03-08T05:19:27;101873.25;;;0.44;100.00
10806;BME280;5455;53.224;6.000;2024-03-08T05:22:00;101871.09;;;0.41;100.00
10806;BME280;5455;53.224;6.000;2024-03-08T05:24:28;101869.72;;;0.39;100.00
10806;BME280;5455;53.224;6.000;2024-03-08T05:26:56;101871.31;;;0.35;100.00
10806;BME280;5455;53.224;6.000;2024-03-08T05:29:24;101878.63;;;0.34;100.00
10806;BME280;5455;53.224;6.000;2024-03-08T05:31:51;101875.94;;;0.34;100.00
10806;BME280;5455;53.224;6.000;2024-03-08T05:34:19;101875.63;;;0.31;100.00
10806;BME280;5455;53.224;6.000;2024-03-08T05:36:48;101870.22;;;0.31;100.00
10806;BME280;5455;53.224;6.000;2024-03-08T05:39:19;101869.38;;;0.25;100.00
10806;BME280;5455;53.224;6.000;2024-03-08T05:41:47;101865.59;;;0.26;100.00
10806;BME280;5455;53.224;6.000;2024-03-08T05:44:14;101871.84;;;0.27;100.00
10806;BME280;5455;53.224;6.000;2024-03-08T05:46:44;101873.47;;;0.28;100.00
10806;BME280;5455;53.224;6.000;2024-03-08T05:49:13;101870.19;;;0.26;100.00
10806;BME280;5455;53.224;6.000;2024-03-08T05:51:41;101872.09;;;0.25;100.00
10806;BME280;5455;53.224;6.000;2024-03-08T05:54:10;101869.66;;;0.24;100.00
10806;BME280;5455;53.224;6.000;2024-03-08T05:56:39;101865.03;;;0.24;100.00
10806;BME280;5455;53.224;6.000;2024-03-08T05:59:12;101869.66;;;0.24;100.00
10806;BME280;5455;53.224;6.000;2024-03-08T06:01:39;101871.56;;;0.23;100.00
10806;BME280;5455;53.224;6.000;2024-03-08T06:04:09;101865.31;;;0.23;100.00
10806;BME280;5455;53.224;6.000;2024-03-08T06:06:39;101863.13;;;0.25;100.00
10806;BME280;5455;53.224;6.000;2024-03-08T06:09:07;101865.59;;;0.26;100.00
10806;BME280;5455;53.224;6.000;2024-03-08T06:11:39;101858.53;;;0.25;100.00
10806;BME280;5455;53.224;6.000;2024-03-08T06:14:07;101855.00;;;0.25;100.00
10806;BME280;5455;53.224;6.000;2024-03-08T06:16:34;101867.19;;;0.22;100.00
10806;BME280;5455;53.224;6.000;2024-03-08T06:19:03;101864.50;;;0.22;100.00
10806;BME280;5455;53.224;6.000;2024-03-08T06:21:30;101863.13;;;0.25;100.00
10806;BME280;5455;53.224;6.000;2024-03-08T06:23:58;101859.34;;;0.26;100.00
10806;BME280;5455;53.224;6.000;2024-03-08T06:26:25;101858.00;;;0.28;100.00
10806;BME280;5455;53.224;6.000;2024-03-08T06:28:57;101856.38;;;0.27;100.00
10806;BME280;5455;53.224;6.000;2024-03-08T06:31:24;101859.91;;;0.28;100.00
10806;BME280;5455;53.224;6.000;2024-03-08T06:33:51;101856.94;;;0.29;100.00
10806;BME280;5455;53.224;6.000;2024-03-08T06:36:23;101855.06;;;0.35;100.00
10806;BME280;5455;53.224;6.000;2024-03-08T06:38:51;101851.81;;;0.33;100.00
10806;BME280;5455;53.224;6.000;2024-03-08T06:41:18;101861.84;;;0.37;100.00
10806;BME280;5455;53.224;6.000;2024-03-08T06:43:46;101849.63;;;0.40;100.00
10806;BME280;5455;53.224;6.000;2024-03-08T06:46:15;101851.28;;;0.41;100.00
10806;BME280;5455;53.224;6.000;2024-03-08T06:48:42;101852.63;;;0.43;100.00
10806;BME280;5455;53.224;6.000;2024-03-08T06:51:10;101862.13;;;0.46;100.00
10806;BME280;5455;53.224;6.000;2024-03-08T06:53:38;101851.56;;;0.49;100.00
10806;BME280;5455;53.224;6.000;2024-03-08T06:56:06;101848.31;;;0.52;100.00
10806;BME280;5455;53.224;6.000;2024-03-08T06:58:35;101850.25;;;0.57;100.00
10806;BME280;5455;53.224;6.000;2024-03-08T07:01:02;101859.22;;;0.63;100.00
10806;BME280;5455;53.224;6.000;2024-03-08T07:03:31;101857.31;;;0.68;100.00
10806;BME280;5455;53.224;6.000;2024-03-08T07:05:59;101854.06;;;0.71;100.00
10806;BME280;5455;53.224;6.000;2024-03-08T07:08:30;101859.25;;;0.78;100.00
10806;BME280;5455;53.224;6.000;2024-03-08T07:10:57;101859.25;;;0.83;100.00
10806;BME280;5455;53.224;6.000;2024-03-08T07:13:26;101849.75;;;0.85;100.00
10806;BME280;5455;53.224;6.000;2024-03-08T07:15:56;101854.38;;;0.90;100.00
10806;BME280;5455;53.224;6.000;2024-03-08T07:18:27;101854.09;;;0.96;100.00
10806;BME280;5455;53.224;6.000;2024-03-08T07:20:54;101844.59;;;0.99;100.00
10806;BME280;5455;53.224;6.000;2024-03-08T07:23:22;101841.06;;;1.03;100.00
10806;BME280;5455;53.224;6.000;2024-03-08T07:26:22;101846.22;;;1.10;100.00
10806;BME280;5455;53.224;6.000;2024-03-08T07:28:50;101844.88;;;1.18;100.00
10806;BME280;5455;53.224;6.000;2024-03-08T07:31:17;101844.88;;;1.23;100.00
10806;BME280;5455;53.224;6.000;2024-03-08T07:33:47;101854.09;;;1.27;100.00
10806;BME280;5455;53.224;6.000;2024-03-08T07:36:14;101859.56;;;1.32;100.00
10806;BME280;5455;53.224;6.000;2024-03-08T07:38:41;101846.22;;;1.35;100.00
10806;BME280;5455;53.224;6.000;2024-03-08T07:41:09;101849.22;;;1.44;100.00
10806;BME280;5455;53.224;6.000;2024-03-08T07:43:39;101845.13;;;1.51;100.00
10806;BME280;5455;53.224;6.000;2024-03-08T07:46:07;101845.66;;;1.58;100.00
10806;BME280;5455;53.224;6.000;2024-03-08T07:48:37;101842.91;;;1.68;100.00
10806;BME280;5455;53.224;6.000;2024-03-08T07:51:05;101835.84;;;1.73;100.00
10806;BME280;5455;53.224;6.000;2024-03-08T07:53:32;101840.16;;;1.79;100.00
10806;BME280;5455;53.224;6.000;2024-03-08T07:55:59;101831.72;;;1.85;100.00
10806;BME280;5455;53.224;6.000;2024-03-08T07:58:27;101836.63;;;1.88;100.00
10806;BME280;5455;53.224;6.000;2024-03-08T08:00:55;101835.25;;;1.91;100.00
10806;BME280;5455;53.224;6.000;2024-03-08T08:03:22;101830.88;;;1.95;100.00
10806;BME280;5455;53.224;6.000;2024-03-08T08:05:49;101827.84;;;2.01;100.00
10806;BME280;5455;53.224;6.000;2024-03-08T08:08:16;101820.50;;;2.07;100.00
10806;BME280;5455;53.224;6.000;2024-03-08T08:10:43;101821.84;;;2.09;100.00
10806;BME280;5455;53.224;6.000;2024-03-08T08:13:10;101818.03;;;2.15;100.00
10806;BME280;5455;53.224;6.000;2024-03-08T08:15:38;101805.19;;;2.21;100.00
10806;BME280;5455;53.224;6.000;2024-03-08T08:18:05;101806.28;;;2.25;100.00
10806;BME280;5455;53.224;6.000;2024-03-08T08:20:34;101799.44;;;2.33;100.00
10806;BME280;5455;53.224;6.000;2024-03-08T08:23:01;101805.94;;;2.37;100.00
10806;BME280;5455;53.224;6.000;2024-03-08T08:25:28;101794.75;;;2.43;100.00
10806;BME280;5455;53.224;6.000;2024-03-08T08:27:56;101794.41;;;2.55;100.00
10806;BME280;5455;53.224;6.000;2024-03-08T08:30:22;101795.19;;;2.60;100.00
10806;BME280;5455;53.224;6.000;2024-03-08T08:32:50;101792.72;;;2.64;100.00
10806;BME280;5455;53.224;6.000;2024-03-08T08:35:17;101792.63;;;2.74;100.00
10806;BME280;5455;53.224;6.000;2024-03-08T08:37:46;101774.06;;;2.81;100.00
10806;BME280;5455;53.224;6.000;2024-03-08T08:40:14;101769.63;;;2.90;100.00
10806;BME280;5455;53.224;6.000;2024-03-08T08:42:42;101766.53;;;3.02;100.00
10806;BME280;5455;53.224;6.000;2024-03-08T08:45:10;101773.88;;;3.06;100.00
10806;BME280;5455;53.224;6.000;2024-03-08T08:47:46;101773.81;;;3.11;100.00
10806;BME280;5455;53.224;6.000;2024-03-08T08:50:14;101761.69;;;3.22;100.00
10806;BME280;5455;53.224;6.000;2024-03-08T08:52:41;101750.72;;;3.32;100.00
10806;BME280;5455;53.224;6.000;2024-03-08T08:55:11;101753.63;;;3.41;100.00
10806;BME280;5455;53.224;6.000;2024-03-08T08:57:42;101755.47;;;3.46;100.00
10806;BME280;5455;53.224;6.000;2024-03-08T09:00:10;101755.44;;;3.51;100.00
10806;BME280;5455;53.224;6.000;2024-03-08T09:02:42;101747.47;;;3.54;100.00
10806;BME280;5455;53.224;6.000;2024-03-08T09:05:10;101745.78;;;3.58;100.00
10806;BME280;5455;53.224;6.000;2024-03-08T09:07:39;101741.03;;;3.69;100.00
10806;BME280;5455;53.224;6.000;2024-03-08T09:10:06;101737.59;;;3.82;100.00
10806;BME280;5455;53.224;6.000;2024-03-08T09:12:39;101734.50;;;3.88;100.00
10806;BME280;5455;53.224;6.000;2024-03-08T09:15:07;101723.81;;;3.92;100.00
10806;BME280;5455;53.224;6.000;2024-03-08T09:17:40;101718.53;;;4.01;100.00
10806;BME280;5455;53.224;6.000;2024-03-08T09:20:09;101726.44;;;4.02;100.00
10806;BME280;5455;53.224;6.000;2024-03-08T09:22:44;101725.53;;;4.07;100.00
10806;BME280;5455;53.224;6.000;2024-03-08T09:25:13;101728.50;;;4.10;100.00
10806;BME280;5455;53.224;6.000;2024-03-08T09:27:40;101712.94;;;4.11;100.00
10806;BME280;5455;53.224;6.000;2024-03-08T09:30:08;101720.81;;;4.12;100.00
10806;BME280;5455;53.224;6.000;2024-03-08T09:32:35;101720.19;;;4.20;100.00
10806;BME280;5455;53.224;6.000;2024-03-08T09:35:04;101721.78;;;4.21;100.00
10806;BME280;5455;53.224;6.000;2024-03-08T09:37:35;101713.31;;;4.23;100.00
10806;BME280;5455;53.224;6.000;2024-03-08T09:40:02;101720.09;;;4.25;100.00
10806;BME280;5455;53.224;6.000;2024-03-08T09:42:35;101697.22;;;4.21;100.00
10806;BME280;5455;53.224;6.000;2024-03-08T09:45:09;101697.66;;;4.28;100.00
10806;BME280;5455;53.224;6.000;2024-03-08T09:47:41;101691.38;;;4.28;100.00
10806;BME280;5455;53.224;6.000;2024-03-08T09:50:09;101691.09;;;4.29;100.00
10806;BME280;5455;53.224;6.000;2024-03-08T09:52:40;101693.97;;;4.38;100.00
10806;BME280;5455;53.224;6.000;2024-03-08T09:55:08;101683.56;;;4.40;100.00
10806;BME280;5455;53.224;6.000;2024-03-08T09:57:39;101683.41;;;4.50;100.00
10806;BME280;5455;53.224;6.000;2024-03-08T10:00:07;101685.00;;;4.51;100.00
10806;BME280;5455;53.224;6.000;2024-03-08T10:02:51;101668.63;;;4.51;100.00
10806;BME280;5455;53.224;6.000;2024-03-08T10:05:21;101659.16;;;4.62;100.00
10806;BME280;5455;53.224;6.000;2024-03-08T10:07:48;101647.84;;;4.69;100.00
10806;BME280;5455;53.224;6.000;2024-03-08T10:10:15;101660.41;;;4.70;100.00
10806;BME280;5455;53.224;6.000;2024-03-08T10:12:43;101654.94;;;4.70;100.00
10806;BME280;5455;53.224;6.000;2024-03-08T10:15:10;101643.72;;;4.71;100.00
10806;BME280;5455;53.224;6.000;2024-03-08T10:17:39;101651.09;;;4.71;100.00
10806;BME280;5455;53.224;6.000;2024-03-08T10:20:17;101640.38;;;4.74;100.00
10806;BME280;5455;53.224;6.000;2024-03-08T10:22:45;101647.66;;;4.79;100.00
10806;BME280;5455;53.224;6.000;2024-03-08T10:25:29;101639.38;;;4.84;100.00
10806;BME280;5455;53.224;6.000;2024-03-08T10:27:59;101633.84;;;4.89;100.00
10806;BME280;5455;53.224;6.000;2024-03-08T10:30:26;101638.38;;;4.93;100.00
10806;BME280;5455;53.224;6.000;2024-03-08T10:32:53;101636.88;;;5.01;100.00
10806;BME280;5455;53.224;6.000;2024-03-08T10:35:20;101630.28;;;5.02;100.00
10806;BME280;5455;53.224;6.000;2024-03-08T10:37:49;101625.41;;;4.99;100.00
10806;BME280;5455;53.224;6.000;2024-03-08T10:40:31;101619.19;;;4.98;100.00
10806;BME280;5455;53.224;6.000;2024-03-08T10:42:59;101612.78;;;5.03;100.00
10806;BME280;5455;53.224;6.000;2024-03-08T10:45:37;101606.31;;;5.13;100.00
10806;BME280;5455;53.224;6.000;2024-03-08T10:48:17;101608.41;;;5.29;100.00
10806;BME280;5455;53.224;6.000;2024-03-08T10:50:47;101601.72;;;5.35;100.00
10806;BME280;5455;53.224;6.000;2024-03-08T10:53:22;101598.19;;;5.35;100.00
10806;BME280;5455;53.224;6.000;2024-03-08T10:55:51;101603.97;;;5.33;100.00
10806;BME280;5455;53.224;6.000;2024-03-08T10:58:24;101595.75;;;5.47;100.00
10806;BME280;5455;53.224;6.000;2024-03-08T11:00:56;101596.25;;;5.49;100.00
10806;BME280;5455;53.224;6.000;2024-03-08T11:06:21;101591.16;;;5.70;100.00
10806;BME280;5455;53.224;6.000;2024-03-08T11:08:50;101580.41;;;5.73;100.00
10806;BME280;5455;53.224;6.000;2024-03-08T11:11:28;101590.22;;;5.74;100.00
10806;BME280;5455;53.224;6.000;2024-03-08T11:14:02;101581.84;;;5.71;100.00
10806;BME280;5455;53.224;6.000;2024-03-08T11:18:59;101577.50;;;5.92;100.00
10806;BME280;5455;53.224;6.000;2024-03-08T11:21:32;101576.47;;;6.01;100.00
10806;BME280;5455;53.224;6.000;2024-03-08T11:24:01;101574.41;;;6.07;100.00
10806;BME280;5455;53.224;6.000;2024-03-08T11:26:29;101566.03;;;6.03;100.00
10806;BME280;5455;53.224;6.000;2024-03-08T11:32:15;101559.38;;;6.18;100.00
10806;BME280;5455;53.224;6.000;2024-03-08T11:34:45;101547.78;;;6.21;100.00
10806;BME280;5455;53.224;6.000;2024-03-08T11:37:14;101547.06;;;6.38;100.00
10806;BME280;5455;53.224;6.000;2024-03-08T11:39:52;101551.84;;;6.54;100.00
10806;BME280;5455;53.224;6.000;2024-03-08T11:42:25;101541.53;;;6.51;100.00
10806;BME280;5455;53.224;6.000;2024-03-08T11:44:55;101537.97;;;6.51;100.00
10806;BME280;5455;53.224;6.000;2024-03-08T11:47:23;101537.66;;;6.52;100.00
10806;BME280;5455;53.224;6.000;2024-03-08T11:49:50;101533.13;;;6.48;100.00
10806;BME280;5455;53.224;6.000;2024-03-08T11:52:18;101529.25;;;6.49;100.00
10806;BME280;5455;53.224;6.000;2024-03-08T11:54:52;101534.91;;;6.52;100.00
10806;BME280;5455;53.224;6.000;2024-03-08T11:57:22;101529.97;;;6.63;100.00
10806;BME280;5455;53.224;6.000;2024-03-08T11:59:51;101537.75;;;6.70;100.00
10806;BME280;5455;53.224;6.000;2024-03-08T12:02:23;101529.56;;;6.78;100.00
10806;BME280;5455;53.224;6.000;2024-03-08T12:04:58;101521.03;;;6.88;100.00
10806;BME280;5455;53.224;6.000;2024-03-08T12:07:30;101513.28;;;6.82;100.00
10806;BME280;5455;53.224;6.000;2024-03-08T12:10:19;101522.19;;;6.96;100.00
10806;BME280;5455;53.224;6.000;2024-03-08T12:12:58;101509.78;;;7.07;100.00
10806;BME280;5455;53.224;6.000;2024-03-08T12:15:28;101508.03;;;7.02;100.00
10806;BME280;5455;53.224;6.000;2024-03-08T12:17:56;101509.63;;;7.03;100.00
10806;BME280;5455;53.224;6.000;2024-03-08T12:20:25;101506.25;;;7.15;100.00
10806;BME280;5455;53.224;6.000;2024-03-08T12:22:53;101503.69;;;7.18;100.00
10806;BME280;5455;53.224;6.000;2024-03-08T12:25:27;101497.25;;;7.23;100.00
10806;BME280;5455;53.224;6.000;2024-03-08T12:27:54;101496.09;;;7.24;100.00
10806;BME280;5455;53.224;6.000;2024-03-08T12:30:25;101492.09;;;7.30;100.00
10806;BME280;5455;53.224;6.000;2024-03-08T12:32:58;101482.91;;;7.35;100.00
10806;BME280;5455;53.224;6.000;2024-03-08T12:35:27;101472.75;;;7.35;100.00
10806;BME280;5455;53.224;6.000;2024-03-08T12:37:58;101472.75;;;7.35;100.00
10806;BME280;5455;53.224;6.000;2024-03-08T12:40:30;101466.78;;;7.42;100.00
10806;BME280;5455;53.224;6.000;2024-03-08T12:42:59;101458.69;;;7.45;100.00
10806;BME280;5455;53.224;6.000;2024-03-08T12:45:26;101454.19;;;7.49;100.00
10806;BME280;5455;53.224;6.000;2024-03-08T12:47:54;101456.28;;;7.61;100.00
10806;BME280;5455;53.224;6.000;2024-03-08T12:50:22;101447.88;;;7.66;100.00
10806;BME280;5455;53.224;6.000;2024-03-08T12:52:51;101444.16;;;7.70;100.00
10806;BME280;5455;53.224;6.000;2024-03-08T12:55:22;101439.13;;;7.72;100.00
10806;BME280;5455;53.224;6.000;2024-03-08T12:57:49;101443.69;;;7.68;100.00
10806;BME280;5455;53.224;6.000;2024-03-08T13:00:16;101428.16;;;7.72;100.00
10806;BME280;5455;53.224;6.000;2024-03-08T13:02:47;101430.91;;;7.72;100.00
10806;BME280;5455;53.224;6.000;2024-03-08T13:05:14;101412.47;;;7.82;100.00
10806;BME280;5455;53.224;6.000;2024-03-08T13:07:41;101409.41;;;7.92;100.00
10806;BME280;5455;53.224;6.000;2024-03-08T13:10:15;101408.78;;;7.86;100.00
10806;BME280;5455;53.224;6.000;2024-03-08T13:12:44;101403.72;;;7.97;100.00
10806;BME280;5455;53.224;6.000;2024-03-08T13:15:11;101398.88;;;7.94;99.42
10806;BME280;5455;53.224;6.000;2024-03-08T13:17:43;101399.19;;;8.01;100.00